sensor_id;sensor_type;location;lat;lon;timestamp;P1;durP1;ratioP1;P2;durP2;ratioP2
26908;SDS011;14477;51.038;4.588;2023-08-01T00:02:00;1.70;;;0.80;;
26908;SDS011;14477;51.038;4.588;2023-08-01T00:04:26;1.83;;;1.20;;
26908;SDS011;14477;51.038;4.588;2023-08-01T00:06:52;1.00;;;0.90;;
26908;SDS011;14477;51.038;4.588;2023-08-01T00:09:18;1.33;;;0.80;;
26908;SDS011;14477;51.038;4.588;2023-08-01T00:11:43;1.30;;;1.10;;
26908;SDS011;14477;51.038;4.588;2023-08-01T00:14:10;1.98;;;1.13;;
26908;SDS011;14477;51.038;4.588;2023-08-01T00:16:35;1.13;;;1.00;;
26908;SDS011;14477;51.038;4.588;2023-08-01T00:19:01;1.15;;;0.88;;
26908;SDS011;14477;51.038;4.588;2023-08-01T00:21:27;1.42;;;0.90;;
26908;SDS011;14477;51.038;4.588;2023-08-01T00:23:55;1.30;;;1.00;;
26908;SDS011;14477;51.038;4.588;2023-08-01T00:26:21;1.00;;;0.85;;
26908;SDS011;14477;51.038;4.588;2023-08-01T00:28:47;2.00;;;1.20;;
26908;SDS011;14477;51.038;4.588;2023-08-01T00:31:13;1.85;;;1.05;;
26908;SDS011;14477;51.038;4.588;2023-08-01T00:33:39;2.60;;;1.30;;
26908;SDS011;14477;51.038;4.588;2023-08-01T00:36:05;2.58;;;1.20;;
26908;SDS011;14477;51.038;4.588;2023-08-01T00:38:36;2.80;;;1.30;;
26908;SDS011;14477;51.038;4.588;2023-08-01T00:41:02;2.42;;;1.48;;
26908;SDS011;14477;51.038;4.588;2023-08-01T00:43:28;3.80;;;1.45;;
26908;SDS011;14477;51.038;4.588;2023-08-01T00:45:55;1.95;;;1.40;;
26908;SDS011;14477;51.038;4.588;2023-08-01T00:48:25;2.30;;;1.47;;
26908;SDS011;14477;51.038;4.588;2023-08-01T00:50:53;2.13;;;1.50;;
26908;SDS011;14477;51.038;4.588;2023-08-01T00:53:21;2.40;;;1.58;;
26908;SDS011;14477;51.038;4.588;2023-08-01T00:55:47;2.47;;;1.30;;
26908;SDS011;14477;51.038;4.588;2023-08-01T00:58:14;2.90;;;1.50;;
26908;SDS011;14477;51.038;4.588;2023-08-01T01:00:40;2.75;;;1.40;;
26908;SDS011;14477;51.038;4.588;2023-08-01T01:03:06;2.90;;;1.60;;
26908;SDS011;14477;51.038;4.588;2023-08-01T01:05:34;2.33;;;1.60;;
26908;SDS011;14477;51.038;4.588;2023-08-01T01:08:03;2.20;;;1.40;;
26908;SDS011;14477;51.038;4.588;2023-08-01T01:10:29;3.03;;;1.70;;
26908;SDS011;14477;51.038;4.588;2023-08-01T01:12:55;3.00;;;1.80;;
26908;SDS011;14477;51.038;4.588;2023-08-01T01:15:21;3.87;;;1.90;;
26908;SDS011;14477;51.038;4.588;2023-08-01T01:17:47;3.00;;;1.75;;
26908;SDS011;14477;51.038;4.588;2023-08-01T01:20:12;5.27;;;1.90;;
26908;SDS011;14477;51.038;4.588;2023-08-01T01:22:38;2.60;;;1.63;;
26908;SDS011;14477;51.038;4.588;2023-08-01T01:25:06;2.25;;;1.63;;
26908;SDS011;14477;51.038;4.588;2023-08-01T01:27:33;2.80;;;1.73;;
26908;SDS011;14477;51.038;4.588;2023-08-01T01:30:02;3.90;;;2.10;;
26908;SDS011;14477;51.038;4.588;2023-08-01T01:32:29;2.80;;;1.75;;
26908;SDS011;14477;51.038;4.588;2023-08-01T01:34:55;2.45;;;1.52;;
26908;SDS011;14477;51.038;4.588;2023-08-01T01:37:21;3.33;;;1.90;;
26908;SDS011;14477;51.038;4.588;2023-08-01T01:39:46;2.43;;;1.50;;
26908;SDS011;14477;51.038;4.588;2023-08-01T01:42:12;2.35;;;1.70;;
26908;SDS011;14477;51.038;4.588;2023-08-01T01:44:38;2.95;;;1.58;;
26908;SDS011;14477;51.038;4.588;2023-08-01T01:47:04;5.13;;;1.70;;
26908;SDS011;14477;51.038;4.588;2023-08-01T01:49:30;2.70;;;2.03;;
26908;SDS011;14477;51.038;4.588;2023-08-01T01:51:56;2.97;;;1.80;;
26908;SDS011;14477;51.038;4.588;2023-08-01T01:54:22;2.77;;;1.90;;
26908;SDS011;14477;51.038;4.588;2023-08-01T01:56:47;2.33;;;1.57;;
26908;SDS011;14477;51.038;4.588;2023-08-01T01:59:13;2.88;;;1.65;;
26908;SDS011;14477;51.038;4.588;2023-08-01T02:01:39;3.47;;;2.10;;
26908;SDS011;14477;51.038;4.588;2023-08-01T02:04:04;5.60;;;1.90;;
26908;SDS011;14477;51.038;4.588;2023-08-01T02:06:30;2.80;;;1.87;;
26908;SDS011;14477;51.038;4.588;2023-08-01T02:08:56;2.75;;;1.85;;
26908;SDS011;14477;51.038;4.588;2023-08-01T02:11:22;4.40;;;1.90;;
26908;SDS011;14477;51.038;4.588;2023-08-01T02:13:47;3.72;;;1.92;;
26908;SDS011;14477;51.038;4.588;2023-08-01T02:16:13;4.03;;;2.03;;
26908;SDS011;14477;51.038;4.588;2023-08-01T02:18:38;2.70;;;1.77;;
26908;SDS011;14477;51.038;4.588;2023-08-01T02:21:04;3.80;;;1.80;;
26908;SDS011;14477;51.038;4.588;2023-08-01T02:23:30;2.83;;;1.90;;
26908;SDS011;14477;51.038;4.588;2023-08-01T02:25:56;3.55;;;1.88;;
26908;SDS011;14477;51.038;4.588;2023-08-01T02:28:23;3.73;;;1.83;;
26908;SDS011;14477;51.038;4.588;2023-08-01T02:30:48;3.13;;;1.90;;
26908;SDS011;14477;51.038;4.588;2023-08-01T02:33:15;4.07;;;2.40;;
26908;SDS011;14477;51.038;4.588;2023-08-01T02:35:41;4.33;;;2.30;;
26908;SDS011;14477;51.038;4.588;2023-08-01T02:38:07;4.07;;;2.13;;
26908;SDS011;14477;51.038;4.588;2023-08-01T02:40:32;3.97;;;2.33;;
26908;SDS011;14477;51.038;4.588;2023-08-01T02:42:58;3.22;;;1.92;;
26908;SDS011;14477;51.038;4.588;2023-08-01T02:45:24;3.97;;;2.30;;
26908;SDS011;14477;51.038;4.588;2023-08-01T02:47:50;3.45;;;2.20;;
26908;SDS011;14477;51.038;4.588;2023-08-01T02:50:16;4.07;;;2.13;;
26908;SDS011;14477;51.038;4.588;2023-08-01T02:52:41;3.30;;;2.00;;
26908;SDS011;14477;51.038;4.588;2023-08-01T02:55:07;3.40;;;1.90;;
26908;SDS011;14477;51.038;4.588;2023-08-01T02:57:33;4.17;;;2.23;;
26908;SDS011;14477;51.038;4.588;2023-08-01T02:59:59;3.97;;;2.40;;
26908;SDS011;14477;51.038;4.588;2023-08-01T03:02:24;4.83;;;2.20;;
26908;SDS011;14477;51.038;4.588;2023-08-01T03:04:52;3.92;;;2.33;;
26908;SDS011;14477;51.038;4.588;2023-08-01T03:07:18;4.43;;;2.60;;
26908;SDS011;14477;51.038;4.588;2023-08-01T03:09:44;4.53;;;2.53;;
26908;SDS011;14477;51.038;4.588;2023-08-01T03:12:09;4.97;;;2.60;;
26908;SDS011;14477;51.038;4.588;2023-08-01T03:14:35;5.00;;;2.97;;
26908;SDS011;14477;51.038;4.588;2023-08-01T03:17:01;5.80;;;3.00;;
26908;SDS011;14477;51.038;4.588;2023-08-01T03:19:27;6.13;;;3.47;;
26908;SDS011;14477;51.038;4.588;2023-08-01T03:21:52;4.32;;;2.65;;
26908;SDS011;14477;51.038;4.588;2023-08-01T03:24:18;5.75;;;2.90;;
26908;SDS011;14477;51.038;4.588;2023-08-01T03:26:44;6.17;;;3.30;;
26908;SDS011;14477;51.038;4.588;2023-08-01T03:29:10;5.72;;;3.22;;
26908;SDS011;14477;51.038;4.588;2023-08-01T03:31:35;4.50;;;2.87;;
26908;SDS011;14477;51.038;4.588;2023-08-01T03:34:01;4.90;;;2.90;;
26908;SDS011;14477;51.038;4.588;2023-08-01T03:36:27;5.57;;;2.90;;
26908;SDS011;14477;51.038;4.588;2023-08-01T03:38:54;4.55;;;2.78;;
26908;SDS011;14477;51.038;4.588;2023-08-01T03:41:20;5.15;;;3.03;;
26908;SDS011;14477;51.038;4.588;2023-08-01T03:43:46;5.87;;;3.63;;
26908;SDS011;14477;51.038;4.588;2023-08-01T03:46:12;4.55;;;2.83;;
26908;SDS011;14477;51.038;4.588;2023-08-01T03:48:37;5.33;;;3.30;;
26908;SDS011;14477;51.038;4.588;2023-08-01T03:51:03;5.72;;;3.15;;
26908;SDS011;14477;51.038;4.588;2023-08-01T03:53:29;5.25;;;3.00;;
26908;SDS011;14477;51.038;4.588;2023-08-01T03:55:55;6.90;;;3.30;;
26908;SDS011;14477;51.038;4.588;2023-08-01T03:58:21;6.85;;;3.42;;
26908;SDS011;14477;51.038;4.588;2023-08-01T04:00:47;5.05;;;3.08;;
26908;SDS011;14477;51.038;4.588;2023-08-01T04:03:12;8.13;;;3.40;;
26908;SDS011;14477;51.038;4.588;2023-08-01T04:05:38;5.97;;;3.33;;
26908;SDS011;14477;51.038;4.588;2023-08-01T04:08:04;6.27;;;3.47;;
26908;SDS011;14477;51.038;4.588;2023-08-01T04:10:29;6.82;;;3.30;;
26908;SDS011;14477;51.038;4.588;2023-08-01T04:12:55;6.10;;;3.23;;
26908;SDS011;14477;51.038;4.588;2023-08-01T04:15:21;5.78;;;3.03;;
26908;SDS011;14477;51.038;4.588;2023-08-01T04:17:47;6.27;;;3.43;;
26908;SDS011;14477;51.038;4.588;2023-08-01T04:20:13;7.07;;;3.42;;
26908;SDS011;14477;51.038;4.588;2023-08-01T04:22:38;7.43;;;3.07;;
26908;SDS011;14477;51.038;4.588;2023-08-01T04:25:04;6.95;;;3.13;;
26908;SDS011;14477;51.038;4.588;2023-08-01T04:27:30;6.35;;;3.10;;
26908;SDS011;14477;51.038;4.588;2023-08-01T04:29:56;5.53;;;3.10;;
26908;SDS011;14477;51.038;4.588;2023-08-01T04:32:21;5.43;;;3.60;;
26908;SDS011;14477;51.038;4.588;2023-08-01T04:34:48;6.63;;;3.70;;
26908;SDS011;14477;51.038;4.588;2023-08-01T04:37:14;5.90;;;3.30;;
26908;SDS011;14477;51.038;4.588;2023-08-01T04:39:40;6.15;;;3.20;;
26908;SDS011;14477;51.038;4.588;2023-08-01T04:42:06;5.23;;;3.03;;
26908;SDS011;14477;51.038;4.588;2023-08-01T04:44:31;7.97;;;3.25;;
26908;SDS011;14477;51.038;4.588;2023-08-01T04:46:57;4.43;;;2.83;;
26908;SDS011;14477;51.038;4.588;2023-08-01T04:49:23;6.23;;;3.40;;
26908;SDS011;14477;51.038;4.588;2023-08-01T04:51:51;6.25;;;3.00;;
26908;SDS011;14477;51.038;4.588;2023-08-01T04:54:17;5.00;;;3.00;;
26908;SDS011;14477;51.038;4.588;2023-08-01T04:56:43;6.18;;;3.05;;
26908;SDS011;14477;51.038;4.588;2023-08-01T04:59:08;5.10;;;2.60;;
26908;SDS011;14477;51.038;4.588;2023-08-01T05:01:34;5.05;;;2.83;;
26908;SDS011;14477;51.038;4.588;2023-08-01T05:04:00;6.23;;;3.03;;
26908;SDS011;14477;51.038;4.588;2023-08-01T05:06:26;4.47;;;3.00;;
26908;SDS011;14477;51.038;4.588;2023-08-01T05:08:53;5.90;;;2.90;;
26908;SDS011;14477;51.038;4.588;2023-08-01T05:11:19;5.03;;;3.00;;
26908;SDS011;14477;51.038;4.588;2023-08-01T05:13:44;7.67;;;3.30;;
26908;SDS011;14477;51.038;4.588;2023-08-01T05:16:10;6.90;;;3.10;;
26908;SDS011;14477;51.038;4.588;2023-08-01T05:18:36;5.07;;;2.97;;
26908;SDS011;14477;51.038;4.588;2023-08-01T05:21:01;6.75;;;2.78;;
26908;SDS011;14477;51.038;4.588;2023-08-01T05:23:27;6.20;;;2.70;;
26908;SDS011;14477;51.038;4.588;2023-08-01T05:25:53;5.03;;;3.00;;
26908;SDS011;14477;51.038;4.588;2023-08-01T05:28:18;5.90;;;3.10;;
26908;SDS011;14477;51.038;4.588;2023-08-01T05:30:44;6.73;;;3.20;;
26908;SDS011;14477;51.038;4.588;2023-08-01T05:33:10;6.68;;;3.10;;
26908;SDS011;14477;51.038;4.588;2023-08-01T05:35:36;5.68;;;3.22;;
26908;SDS011;14477;51.038;4.588;2023-08-01T05:38:02;4.03;;;2.67;;
26908;SDS011;14477;51.038;4.588;2023-08-01T05:40:27;4.78;;;2.53;;
26908;SDS011;14477;51.038;4.588;2023-08-01T05:42:53;5.23;;;2.77;;
26908;SDS011;14477;51.038;4.588;2023-08-01T05:45:19;4.43;;;2.55;;
26908;SDS011;14477;51.038;4.588;2023-08-01T05:47:44;4.57;;;2.50;;
26908;SDS011;14477;51.038;4.588;2023-08-01T05:50:10;5.57;;;2.90;;
26908;SDS011;14477;51.038;4.588;2023-08-01T05:52:36;5.73;;;2.80;;
26908;SDS011;14477;51.038;4.588;2023-08-01T05:55:02;5.07;;;3.10;;
26908;SDS011;14477;51.038;4.588;2023-08-01T05:57:27;6.40;;;2.80;;
26908;SDS011;14477;51.038;4.588;2023-08-01T05:59:54;7.20;;;2.95;;
26908;SDS011;14477;51.038;4.588;2023-08-01T06:02:20;5.68;;;3.03;;
26908;SDS011;14477;51.038;4.588;2023-08-01T06:04:45;4.67;;;2.90;;
26908;SDS011;14477;51.038;4.588;2023-08-01T06:07:11;5.30;;;2.90;;
26908;SDS011;14477;51.038;4.588;2023-08-01T06:09:37;5.03;;;2.90;;
26908;SDS011;14477;51.038;4.588;2023-08-01T06:12:03;6.78;;;3.55;;
26908;SDS011;14477;51.038;4.588;2023-08-01T06:14:29;6.47;;;3.08;;
26908;SDS011;14477;51.038;4.588;2023-08-01T06:16:55;6.53;;;3.50;;
26908;SDS011;14477;51.038;4.588;2023-08-01T06:19:20;6.63;;;2.80;;
26908;SDS011;14477;51.038;4.588;2023-08-01T06:21:46;4.20;;;2.60;;
26908;SDS011;14477;51.038;4.588;2023-08-01T06:24:12;4.43;;;2.47;;
26908;SDS011;14477;51.038;4.588;2023-08-01T06:26:38;5.80;;;3.20;;
26908;SDS011;14477;51.038;4.588;2023-08-01T06:29:04;4.73;;;2.70;;
26908;SDS011;14477;51.038;4.588;2023-08-01T06:31:30;6.07;;;3.22;;
26908;SDS011;14477;51.038;4.588;2023-08-01T06:33:55;6.30;;;2.88;;
26908;SDS011;14477;51.038;4.588;2023-08-01T06:36:21;7.43;;;3.10;;
26908;SDS011;14477;51.038;4.588;2023-08-01T06:38:48;5.28;;;3.10;;
26908;SDS011;14477;51.038;4.588;2023-08-01T06:41:14;6.50;;;3.10;;
26908;SDS011;14477;51.038;4.588;2023-08-01T06:43:40;7.32;;;3.10;;
26908;SDS011;14477;51.038;4.588;2023-08-01T06:46:07;6.97;;;3.37;;
26908;SDS011;14477;51.038;4.588;2023-08-01T06:48:33;5.20;;;3.08;;
26908;SDS011;14477;51.038;4.588;2023-08-01T06:51:00;6.47;;;3.20;;
26908;SDS011;14477;51.038;4.588;2023-08-01T06:53:27;4.50;;;3.10;;
26908;SDS011;14477;51.038;4.588;2023-08-01T06:55:54;6.10;;;3.53;;
26908;SDS011;14477;51.038;4.588;2023-08-01T06:58:20;7.30;;;3.78;;
26908;SDS011;14477;51.038;4.588;2023-08-01T07:00:45;6.50;;;3.37;;
26908;SDS011;14477;51.038;4.588;2023-08-01T07:03:11;6.32;;;3.50;;
26908;SDS011;14477;51.038;4.588;2023-08-01T07:05:37;6.67;;;3.47;;
26908;SDS011;14477;51.038;4.588;2023-08-01T07:08:03;5.60;;;3.00;;
26908;SDS011;14477;51.038;4.588;2023-08-01T07:10:29;6.03;;;3.45;;
26908;SDS011;14477;51.038;4.588;2023-08-01T07:12:59;6.05;;;3.50;;
26908;SDS011;14477;51.038;4.588;2023-08-01T07:15:27;5.30;;;3.40;;
26908;SDS011;14477;51.038;4.588;2023-08-01T07:17:52;5.32;;;2.83;;
26908;SDS011;14477;51.038;4.588;2023-08-01T07:20:18;5.83;;;2.87;;
26908;SDS011;14477;51.038;4.588;2023-08-01T07:22:44;6.00;;;2.90;;
26908;SDS011;14477;51.038;4.588;2023-08-01T07:25:09;4.07;;;2.67;;
26908;SDS011;14477;51.038;4.588;2023-08-01T07:27:36;6.05;;;2.78;;
26908;SDS011;14477;51.038;4.588;2023-08-01T07:30:03;5.75;;;2.72;;
26908;SDS011;14477;51.038;4.588;2023-08-01T07:32:30;4.40;;;2.92;;
26908;SDS011;14477;51.038;4.588;2023-08-01T07:34:56;5.57;;;2.87;;
26908;SDS011;14477;51.038;4.588;2023-08-01T07:37:22;4.75;;;2.90;;
26908;SDS011;14477;51.038;4.588;2023-08-01T07:39:49;5.93;;;2.70;;
26908;SDS011;14477;51.038;4.588;2023-08-01T07:42:15;5.87;;;2.70;;
26908;SDS011;14477;51.038;4.588;2023-08-01T07:44:40;5.20;;;2.50;;
26908;SDS011;14477;51.038;4.588;2023-08-01T07:47:06;3.97;;;2.43;;
26908;SDS011;14477;51.038;4.588;2023-08-01T07:49:32;5.70;;;2.70;;
26908;SDS011;14477;51.038;4.588;2023-08-01T07:51:58;5.13;;;2.65;;
26908;SDS011;14477;51.038;4.588;2023-08-01T07:54:24;3.57;;;2.60;;
26908;SDS011;14477;51.038;4.588;2023-08-01T07:56:50;4.32;;;2.90;;
26908;SDS011;14477;51.038;4.588;2023-08-01T07:59:15;3.90;;;2.67;;
26908;SDS011;14477;51.038;4.588;2023-08-01T08:01:41;4.43;;;2.60;;
26908;SDS011;14477;51.038;4.588;2023-08-01T08:04:07;4.75;;;2.88;;
26908;SDS011;14477;51.038;4.588;2023-08-01T08:06:33;5.07;;;2.90;;
26908;SDS011;14477;51.038;4.588;2023-08-01T08:08:59;5.22;;;3.25;;
26908;SDS011;14477;51.038;4.588;2023-08-01T08:11:24;4.43;;;2.47;;
26908;SDS011;14477;51.038;4.588;2023-08-01T08:13:50;5.25;;;2.90;;
26908;SDS011;14477;51.038;4.588;2023-08-01T08:16:16;6.53;;;3.00;;
26908;SDS011;14477;51.038;4.588;2023-08-01T08:18:41;5.07;;;2.70;;
26908;SDS011;14477;51.038;4.588;2023-08-01T08:21:07;4.97;;;2.90;;
26908;SDS011;14477;51.038;4.588;2023-08-01T08:23:33;5.10;;;3.22;;
26908;SDS011;14477;51.038;4.588;2023-08-01T08:25:59;5.43;;;2.70;;
26908;SDS011;14477;51.038;4.588;2023-08-01T08:28:28;4.47;;;2.67;;
26908;SDS011;14477;51.038;4.588;2023-08-01T08:30:55;4.53;;;3.03;;
26908;SDS011;14477;51.038;4.588;2023-08-01T08:33:20;3.33;;;2.80;;
26908;SDS011;14477;51.038;4.588;2023-08-01T08:35:46;6.47;;;3.00;;
26908;SDS011;14477;51.038;4.588;2023-08-01T08:38:12;5.05;;;2.72;;
26908;SDS011;14477;51.038;4.588;2023-08-01T08:40:40;4.83;;;2.60;;
26908;SDS011;14477;51.038;4.588;2023-08-01T08:43:08;4.57;;;2.70;;
26908;SDS011;14477;51.038;4.588;2023-08-01T08:45:36;5.60;;;2.70;;
26908;SDS011;14477;51.038;4.588;2023-08-01T08:48:09;3.92;;;2.60;;
26908;SDS011;14477;51.038;4.588;2023-08-01T08:50:40;5.37;;;2.60;;
26908;SDS011;14477;51.038;4.588;2023-08-01T08:53:07;3.95;;;2.60;;
26908;SDS011;14477;51.038;4.588;2023-08-01T08:55:37;4.38;;;2.67;;
26908;SDS011;14477;51.038;4.588;2023-08-01T08:58:07;4.40;;;2.63;;
26908;SDS011;14477;51.038;4.588;2023-08-01T09:00:35;4.10;;;2.72;;
26908;SDS011;14477;51.038;4.588;2023-08-01T09:03:02;4.43;;;2.90;;
26908;SDS011;14477;51.038;4.588;2023-08-01T09:05:30;3.67;;;2.55;;
26908;SDS011;14477;51.038;4.588;2023-08-01T09:07:59;3.63;;;2.60;;
26908;SDS011;14477;51.038;4.588;2023-08-01T09:10:30;3.85;;;2.40;;
26908;SDS011;14477;51.038;4.588;2023-08-01T09:12:56;4.00;;;2.40;;
26908;SDS011;14477;51.038;4.588;2023-08-01T09:15:22;3.90;;;2.00;;
26908;SDS011;14477;51.038;4.588;2023-08-01T09:17:51;3.08;;;2.00;;
26908;SDS011;14477;51.038;4.588;2023-08-01T09:20:20;4.65;;;2.40;;
26908;SDS011;14477;51.038;4.588;2023-08-01T09:22:46;5.33;;;2.50;;
26908;SDS011;14477;51.038;4.588;2023-08-01T09:25:14;5.13;;;2.80;;
26908;SDS011;14477;51.038;4.588;2023-08-01T09:27:39;4.05;;;2.70;;
26908;SDS011;14477;51.038;4.588;2023-08-01T09:30:12;4.37;;;2.87;;
26908;SDS011;14477;51.038;4.588;2023-08-01T09:32:50;3.75;;;2.80;;
26908;SDS011;14477;51.038;4.588;2023-08-01T09:35:21;4.25;;;2.63;;
26908;SDS011;14477;51.038;4.588;2023-08-01T09:37:48;3.67;;;2.75;;
26908;SDS011;14477;51.038;4.588;2023-08-01T09:40:14;4.27;;;2.70;;
26908;SDS011;14477;51.038;4.588;2023-08-01T09:42:40;4.18;;;2.70;;
26908;SDS011;14477;51.038;4.588;2023-08-01T09:45:17;3.92;;;3.20;;
26908;SDS011;14477;51.038;4.588;2023-08-01T09:47:44;4.60;;;3.00;;
26908;SDS011;14477;51.038;4.588;2023-08-01T09:50:10;3.70;;;2.90;;
26908;SDS011;14477;51.038;4.588;2023-08-01T09:52:38;3.67;;;3.00;;
26908;SDS011;14477;51.038;4.588;2023-08-01T09:55:04;4.25;;;3.25;;
26908;SDS011;14477;51.038;4.588;2023-08-01T09:57:30;4.13;;;3.40;;
26908;SDS011;14477;51.038;4.588;2023-08-01T09:59:56;5.93;;;3.20;;
26908;SDS011;14477;51.038;4.588;2023-08-01T10:02:24;3.47;;;3.00;;
26908;SDS011;14477;51.038;4.588;2023-08-01T10:04:54;4.70;;;3.00;;
26908;SDS011;14477;51.038;4.588;2023-08-01T10:07:26;3.67;;;3.03;;
26908;SDS011;14477;51.038;4.588;2023-08-01T10:09:55;5.05;;;3.17;;
26908;SDS011;14477;51.038;4.588;2023-08-01T10:12:23;5.82;;;3.22;;
26908;SDS011;14477;51.038;4.588;2023-08-01T10:14:51;3.40;;;2.73;;
26908;SDS011;14477;51.038;4.588;2023-08-01T10:17:18;4.38;;;2.90;;
26908;SDS011;14477;51.038;4.588;2023-08-01T10:19:46;3.33;;;2.45;;
26908;SDS011;14477;51.038;4.588;2023-08-01T10:22:13;3.40;;;2.50;;
26908;SDS011;14477;51.038;4.588;2023-08-01T10:24:40;4.28;;;2.67;;
26908;SDS011;14477;51.038;4.588;2023-08-01T10:27:19;3.17;;;2.70;;
26908;SDS011;14477;51.038;4.588;2023-08-01T10:29:59;3.13;;;2.58;;
26908;SDS011;14477;51.038;4.588;2023-08-01T10:32:30;3.47;;;2.50;;
26908;SDS011;14477;51.038;4.588;2023-08-01T10:34:58;4.10;;;2.10;;
26908;SDS011;14477;51.038;4.588;2023-08-01T10:37:23;2.55;;;2.10;;
26908;SDS011;14477;51.038;4.588;2023-08-01T10:39:56;3.10;;;2.20;;
26908;SDS011;14477;51.038;4.588;2023-08-01T10:42:23;3.33;;;2.35;;
26908;SDS011;14477;51.038;4.588;2023-08-01T10:44:49;2.97;;;2.10;;
26908;SDS011;14477;51.038;4.588;2023-08-01T10:47:24;3.58;;;2.28;;
26908;SDS011;14477;51.038;4.588;2023-08-01T10:49:51;4.43;;;2.00;;
26908;SDS011;14477;51.038;4.588;2023-08-01T10:54:59;4.53;;;2.60;;
26908;SDS011;14477;51.038;4.588;2023-08-01T10:57:27;2.78;;;2.17;;
26908;SDS011;14477;51.038;4.588;2023-08-01T10:59:55;2.95;;;2.33;;
26908;SDS011;14477;51.038;4.588;2023-08-01T11:02:22;3.97;;;2.37;;
26908;SDS011;14477;51.038;4.588;2023-08-01T11:07:25;3.63;;;2.58;;
26908;SDS011;14477;51.038;4.588;2023-08-01T11:12:34;2.90;;;2.50;;
26908;SDS011;14477;51.038;4.588;2023-08-01T11:15:06;3.70;;;2.77;;
26908;SDS011;14477;51.038;4.588;2023-08-01T11:17:37;5.78;;;2.65;;
26908;SDS011;14477;51.038;4.588;2023-08-01T11:20:08;4.15;;;2.30;;
26908;SDS011;14477;51.038;4.588;2023-08-01T11:22:36;4.00;;;2.40;;
26908;SDS011;14477;51.038;4.588;2023-08-01T11:25:02;3.05;;;2.10;;
26908;SDS011;14477;51.038;4.588;2023-08-01T11:27:29;4.67;;;2.70;;
26908;SDS011;14477;51.038;4.588;2023-08-01T11:29:55;5.28;;;2.70;;
26908;SDS011;14477;51.038;4.588;2023-08-01T11:32:21;4.10;;;2.40;;
26908;SDS011;14477;51.038;4.588;2023-08-01T11:34:57;3.05;;;2.53;;
26908;SDS011;14477;51.038;4.588;2023-08-01T11:37:25;3.63;;;2.40;;
26908;SDS011;14477;51.038;4.588;2023-08-01T11:39:53;5.15;;;2.70;;
26908;SDS011;14477;51.038;4.588;2023-08-01T11:42:20;3.63;;;2.78;;
26908;SDS011;14477;51.038;4.588;2023-08-01T11:44:45;3.87;;;2.57;;
26908;SDS011;14477;51.038;4.588;2023-08-01T11:47:12;3.88;;;2.80;;
26908;SDS011;14477;51.038;4.588;2023-08-01T11:49:39;3.35;;;2.50;;
26908;SDS011;14477;51.038;4.588;2023-08-01T11:52:10;4.55;;;2.50;;
26908;SDS011;14477;51.038;4.588;2023-08-01T11:54:45;4.30;;;2.57;;
26908;SDS011;14477;51.038;4.588;2023-08-01T11:57:10;3.05;;;2.40;;
26908;SDS011;14477;51.038;4.588;2023-08-01T11:59:45;3.30;;;2.60;;
26908;SDS011;14477;51.038;4.588;2023-08-01T12:02:19;3.60;;;2.33;;
26908;SDS011;14477;51.038;4.588;2023-08-01T12:04:57;3.08;;;2.35;;
26908;SDS011;14477;51.038;4.588;2023-08-01T12:07:26;4.30;;;2.20;;
26908;SDS011;14477;51.038;4.588;2023-08-01T12:09:54;3.95;;;2.55;;
26908;SDS011;14477;51.038;4.588;2023-08-01T12:12:25;3.03;;;2.50;;
26908;SDS011;14477;51.038;4.588;2023-08-01T12:14:52;3.30;;;2.33;;
26908;SDS011;14477;51.038;4.588;2023-08-01T12:17:18;3.40;;;2.40;;
26908;SDS011;14477;51.038;4.588;2023-08-01T12:19:45;4.28;;;2.28;;
26908;SDS011;14477;51.038;4.588;2023-08-01T12:22:11;3.78;;;2.15;;
26908;SDS011;14477;51.038;4.588;2023-08-01T12:24:37;3.07;;;2.27;;
26908;SDS011;14477;51.038;4.588;2023-08-01T12:27:05;2.78;;;2.10;;
26908;SDS011;14477;51.038;4.588;2023-08-01T12:29:31;2.72;;;1.65;;
26908;SDS011;14477;51.038;4.588;2023-08-01T12:31:57;2.63;;;1.80;;
26908;SDS011;14477;51.038;4.588;2023-08-01T12:34:22;4.65;;;1.77;;
26908;SDS011;14477;51.038;4.588;2023-08-01T12:36:48;2.70;;;1.87;;
26908;SDS011;14477;51.038;4.588;2023-08-01T12:39:14;2.97;;;2.03;;
26908;SDS011;14477;51.038;4.588;2023-08-01T12:41:39;2.43;;;1.90;;
26908;SDS011;14477;51.038;4.588;2023-08-01T12:44:05;3.50;;;2.00;;
26908;SDS011;14477;51.038;4.588;2023-08-01T12:46:31;1.87;;;1.60;;
26908;SDS011;14477;51.038;4.588;2023-08-01T12:48:57;3.55;;;1.90;;
26908;SDS011;14477;51.038;4.588;2023-08-01T12:51:23;2.53;;;1.63;;
26908;SDS011;14477;51.038;4.588;2023-08-01T12:53:48;2.93;;;1.40;;
26908;SDS011;14477;51.038;4.588;2023-08-01T12:56:14;1.77;;;1.55;;
26908;SDS011;14477;51.038;4.588;2023-08-01T12:58:40;2.50;;;1.57;;
26908;SDS011;14477;51.038;4.588;2023-08-01T13:01:06;2.17;;;1.50;;
26908;SDS011;14477;51.038;4.588;2023-08-01T13:03:31;2.17;;;1.47;;
26908;SDS011;14477;51.038;4.588;2023-08-01T13:05:58;2.53;;;1.58;;
26908;SDS011;14477;51.038;4.588;2023-08-01T13:08:24;2.25;;;1.25;;
26908;SDS011;14477;51.038;4.588;2023-08-01T13:10:50;1.80;;;1.40;;
26908;SDS011;14477;51.038;4.588;2023-08-01T13:13:17;3.03;;;1.30;;
26908;SDS011;14477;51.038;4.588;2023-08-01T13:15:42;2.53;;;1.50;;
26908;SDS011;14477;51.038;4.588;2023-08-01T13:18:09;1.92;;;1.40;;
26908;SDS011;14477;51.038;4.588;2023-08-01T13:20:35;1.37;;;1.00;;
26908;SDS011;14477;51.038;4.588;2023-08-01T13:23:01;2.72;;;1.50;;
26908;SDS011;14477;51.038;4.588;2023-08-01T13:25:27;2.65;;;1.20;;
26908;SDS011;14477;51.038;4.588;2023-08-01T13:27:53;1.90;;;1.20;;
26908;SDS011;14477;51.038;4.588;2023-08-01T13:30:19;2.27;;;1.30;;
26908;SDS011;14477;51.038;4.588;2023-08-01T13:32:45;1.90;;;1.30;;
26908;SDS011;14477;51.038;4.588;2023-08-01T13:35:11;1.73;;;0.93;;
26908;SDS011;14477;51.038;4.588;2023-08-01T13:37:37;1.80;;;1.07;;
26908;SDS011;14477;51.038;4.588;2023-08-01T13:40:03;2.63;;;1.27;;
26908;SDS011;14477;51.038;4.588;2023-08-01T13:42:30;1.33;;;0.90;;
26908;SDS011;14477;51.038;4.588;2023-08-01T13:44:56;1.87;;;1.30;;
26908;SDS011;14477;51.038;4.588;2023-08-01T13:47:23;1.80;;;1.10;;
26908;SDS011;14477;51.038;4.588;2023-08-01T13:49:49;2.67;;;1.50;;
26908;SDS011;14477;51.038;4.588;2023-08-01T13:52:14;2.15;;;1.30;;
26908;SDS011;14477;51.038;4.588;2023-08-01T13:54:40;1.70;;;1.20;;
26908;SDS011;14477;51.038;4.588;2023-08-01T13:57:06;2.17;;;1.10;;
26908;SDS011;14477;51.038;4.588;2023-08-01T13:59:32;1.80;;;1.27;;
26908;SDS011;14477;51.038;4.588;2023-08-01T14:01:57;3.22;;;1.10;;
26908;SDS011;14477;51.038;4.588;2023-08-01T14:04:23;2.27;;;1.30;;
26908;SDS011;14477;51.038;4.588;2023-08-01T14:06:49;1.75;;;1.05;;
26908;SDS011;14477;51.038;4.588;2023-08-01T14:09:15;2.37;;;1.23;;
26908;SDS011;14477;51.038;4.588;2023-08-01T14:11:40;2.00;;;1.10;;
26908;SDS011;14477;51.038;4.588;2023-08-01T14:14:09;2.03;;;1.30;;
26908;SDS011;14477;51.038;4.588;2023-08-01T14:16:34;1.80;;;1.37;;
26908;SDS011;14477;51.038;4.588;2023-08-01T14:19:00;3.40;;;1.40;;
26908;SDS011;14477;51.038;4.588;2023-08-01T14:21:28;3.33;;;1.30;;
26908;SDS011;14477;51.038;4.588;2023-08-01T14:23:54;3.55;;;1.30;;
26908;SDS011;14477;51.038;4.588;2023-08-01T14:26:20;2.43;;;1.50;;
26908;SDS011;14477;51.038;4.588;2023-08-01T14:28:46;2.03;;;1.13;;
26908;SDS011;14477;51.038;4.588;2023-08-01T14:31:11;2.80;;;1.17;;
26908;SDS011;14477;51.038;4.588;2023-08-01T14:33:37;2.43;;;1.10;;
26908;SDS011;14477;51.038;4.588;2023-08-01T14:36:06;2.50;;;1.00;;
26908;SDS011;14477;51.038;4.588;2023-08-01T14:38:34;1.30;;;0.90;;
26908;SDS011;14477;51.038;4.588;2023-08-01T14:41:01;2.50;;;1.10;;
26908;SDS011;14477;51.038;4.588;2023-08-01T14:43:29;1.92;;;1.10;;
26908;SDS011;14477;51.038;4.588;2023-08-01T14:45:54;3.17;;;1.17;;
26908;SDS011;14477;51.038;4.588;2023-08-01T14:48:20;1.83;;;1.10;;
26908;SDS011;14477;51.038;4.588;2023-08-01T14:50:46;3.37;;;1.10;;
26908;SDS011;14477;51.038;4.588;2023-08-01T14:53:11;2.60;;;1.10;;